Time;durP1;ratioP1;P1;durP2;ratioP2;P2;SDS_P1;SDS_P2;PMS_P1;PMS_P2;Temp;Humidity;BMP_temperature;BMP_pressure;BME280_temperature;BME280_humidity;BME280_pressure;Samples;Min_cycle;Max_cycle;Signal;HPM_P1;HPM_P2
2024/02/04 00:02:43;;;;;;;0.20;0.10;;;9.40;71.60;;;;;;20682043;28;20048;-43
2024/02/04 00:12:45;;;;;;;0.20;0.10;;;8.60;75.00;;;;;;20681575;28;21285;-44
2024/02/04 00:22:47;;;;;;;0.73;0.10;;;8.50;72.70;;;;;;20681444;28;20091;-43
2024/02/04 00:32:48;;;;;;;0.65;0.10;;;8.60;74.10;;;;;;20681006;28;20149;-43
2024/02/04 00:42:50;;;;;;;0.20;0.10;;;8.30;71.00;;;;;;20679615;28;20070;-44
2024/02/04 00:52:55;;;;;;;1.48;0.10;;;8.70;72.00;;;;;;20677767;28;20085;-44
2024/02/04 01:02:57;;;;;;;0.28;0.05;;;8.90;71.50;;;;;;20661377;28;20045;-45
2024/02/04 01:12:58;;;;;;;0.20;0.10;;;8.80;70.90;;;;;;20677698;28;20068;-44
2024/02/04 01:23:00;;;;;;;0.10;0.10;;;9.10;70.10;;;;;;20677316;28;20158;-43
2024/02/04 01:33:02;;;;;;;0.63;0.15;;;9.10;71.10;;;;;;20677387;28;20785;-43
2024/02/04 01:43:04;;;;;;;0.40;0.10;;;9.30;68.40;;;;;;20660184;28;20037;-43
2024/02/04 01:53:06;;;;;;;0.10;0.10;;;9.40;66.30;;;;;;20673757;28;20037;-45
2024/02/04 02:03:12;;;;;;;0.10;0.00;;;8.70;70.90;;;;;;20676964;28;20044;-43
2024/02/04 02:13:22;;;;;;;0.95;0.10;;;8.50;70.10;;;;;;20690016;28;20068;-43
2024/02/04 02:23:36;;;;;;;0.10;0.00;;;8.30;70.40;;;;;;20690308;28;20132;-43
2024/02/04 02:33:41;;;;;;;0.10;0.00;;;7.90;71.30;;;;;;20688307;28;20514;-43
2024/02/04 02:43:44;;;;;;;1.42;0.10;;;7.40;69.80;;;;;;20690954;28;20037;-44
2024/02/04 02:53:46;;;;;;;0.10;0.00;;;7.20;70.90;;;;;;20687597;28;20092;-43
2024/02/04 03:03:48;;;;;;;0.28;0.00;;;6.90;71.90;;;;;;20691198;28;20041;-44
2024/02/04 03:13:50;;;;;;;0.08;0.00;;;6.60;72.70;;;;;;20668529;28;20157;-43
2024/02/04 03:23:51;;;;;;;0.32;0.00;;;6.50;72.10;;;;;;20664312;28;20165;-42
2024/02/04 03:33:53;;;;;;;0.10;0.03;;;6.40;71.10;;;;;;20683456;28;20933;-44
2024/02/04 03:43:55;;;;;;;0.00;0.00;;;6.30;71.60;;;;;;20666561;28;21442;-43
2024/02/04 03:53:57;;;;;;;0.15;0.00;;;6.10;71.10;;;;;;20684045;28;20069;-42
2024/02/04 04:04:00;;;;;;;0.00;0.00;;;6.20;72.10;;;;;;20680865;28;20118;-44
2024/02/04 04:14:02;;;;;;;0.10;0.00;;;7.00;72.80;;;;;;20681128;28;20150;-44
2024/02/04 04:24:04;;;;;;;0.20;0.00;;;6.70;72.10;;;;;;20684750;28;20878;-45
2024/02/04 04:34:06;;;;;;;0.00;0.00;;;6.60;72.20;;;;;;20683402;28;20033;-43
2024/02/04 04:44:10;;;;;;;0.30;0.08;;;6.90;71.70;;;;;;20679099;28;20098;-44
2024/02/04 04:54:12;;;;;;;0.03;0.00;;;8.00;69.00;;;;;;20679689;28;20041;-42
2024/02/04 05:04:15;;;;;;;0.15;0.10;;;8.20;68.00;;;;;;20679213;28;20045;-54
2024/02/04 05:14:17;;;;;;;0.32;0.10;;;7.70;69.90;;;;;;20678522;28;21370;-44
2024/02/04 05:24:18;;;;;;;0.63;0.10;;;7.10;70.90;;;;;;20676794;28;20056;-44
2024/02/04 05:34:23;;;;;;;0.00;0.00;;;8.10;69.10;;;;;;20675713;28;20727;-43
2024/02/04 05:44:25;;;;;;;0.45;0.00;;;8.00;68.90;;;;;;20675995;28;20468;-42
2024/02/04 05:54:26;;;;;;;0.00;0.00;;;8.20;68.40;;;;;;20677919;28;20100;-44
2024/02/04 06:04:29;;;;;;;1.35;0.10;;;8.20;68.70;;;;;;20674573;28;20032;-45
2024/02/04 06:14:30;;;;;;;0.10;0.00;;;8.80;67.30;;;;;;20673019;28;20064;-45
2024/02/04 06:24:37;;;;;;;1.98;0.10;;;8.70;66.20;;;;;;20669685;28;20823;-43
2024/02/04 06:34:39;;;;;;;0.10;0.00;;;8.90;65.90;;;;;;20670047;28;20033;-43
2024/02/04 06:44:44;;;;;;;0.20;0.10;;;9.40;65.70;;;;;;20669538;28;20040;-44
2024/02/04 06:54:50;;;;;;;0.20;0.05;;;9.10;66.00;;;;;;20659193;28;20707;-43
2024/02/04 07:04:53;;;;;;;0.20;0.10;;;8.80;66.90;;;;;;20683517;28;20126;-43
2024/02/04 07:14:54;;;;;;;0.55;0.17;;;8.90;67.10;;;;;;20681321;28;20064;-45
2024/02/04 07:24:57;;;;;;;20.70;7.78;;;8.90;66.60;;;;;;20682467;28;21239;-45
2024/02/04 07:34:59;;;;;;;0.70;0.40;;;8.90;67.00;;;;;;20682653;28;20156;-43
2024/02/04 07:45:02;;;;;;;0.75;0.35;;;9.30;65.70;;;;;;20682063;28;20695;-43
2024/02/04 07:55:04;;;;;;;0.73;0.10;;;9.90;65.40;;;;;;20679045;28;20463;-45
2024/02/04 08:05:08;;;;;;;0.10;0.00;;;10.30;64.60;;;;;;20677977;28;20064;-44
2024/02/04 08:15:10;;;;;;;0.73;0.28;;;10.40;64.20;;;;;;20678221;28;20121;-44
2024/02/04 08:25:12;;;;;;;0.60;0.20;;;10.70;63.60;;;;;;20679877;28;20069;-43
2024/02/04 08:35:13;;;;;;;0.10;0.10;;;10.90;63.90;;;;;;20680744;28;20064;-44
2024/02/04 08:45:18;;;;;;;0.47;0.10;;;11.10;63.50;;;;;;20676944;28;20079;-45
2024/02/04 08:55:20;;;;;;;1.25;0.10;;;11.20;62.70;;;;;;20676552;28;20914;-44
2024/02/04 09:05:24;;;;;;;0.47;0.10;;;11.20;64.00;;;;;;20673446;28;20040;-45
2024/02/04 09:15:26;;;;;;;0.08;0.00;;;11.40;61.70;;;;;;20671011;28;20068;-48
2024/02/04 09:25:28;;;;;;;0.00;0.00;;;11.90;61.10;;;;;;20668312;28;20099;-45
2024/02/04 09:35:30;;;;;;;1.13;0.05;;;12.70;59.80;;;;;;20672368;28;20162;-46
2024/02/04 09:45:31;;;;;;;0.22;0.00;;;13.40;57.90;;;;;;20669456;28;20041;-45
2024/02/04 09:55:34;;;;;;;0.10;0.00;;;13.50;59.40;;;;;;20670047;28;20161;-45
2024/02/04 10:05:36;;;;;;;0.40;0.00;;;13.40;58.10;;;;;;20671842;28;20033;-48
2024/02/04 10:15:38;;;;;;;0.43;0.10;;;13.40;58.30;;;;;;20673454;28;20127;-47
2024/02/04 10:25:40;;;;;;;0.40;0.13;;;14.30;57.90;;;;;;20671535;28;20057;-45
2024/02/04 10:35:43;;;;;;;0.25;0.10;;;15.60;62.00;;;;;;20686229;28;20427;-45
2024/02/04 10:45:47;;;;;;;0.17;0.10;;;16.50;57.30;;;;;;20688115;28;20068;-45
2024/02/04 10:56:02;;;;;;;0.30;0.10;;;17.00;54.10;;;;;;20685245;28;20072;-50
2024/02/04 11:06:18;;;;;;;0.10;0.10;;;17.50;55.50;;;;;;20667780;28;20037;-48
2024/02/04 11:16:40;;;;;;;0.00;0.00;;;18.00;55.90;;;;;;20683941;28;20110;-46
2024/02/04 11:26:43;;;;;;;0.88;0.65;;;18.30;53.00;;;;;;20682788;28;21125;-48
2024/02/04 11:36:45;;;;;;;1.80;0.80;;;18.80;60.00;;;;;;20684841;28;20033;-50
2024/02/04 11:46:47;;;;;;;2.00;1.15;;;18.60;59.40;;;;;;20681465;28;20128;-50
2024/02/04 11:56:53;;;;;;;2.42;1.75;;;18.00;61.30;;;;;;20678004;28;20091;-46
2024/02/04 12:06:56;;;;;;;2.28;1.15;;;17.60;61.90;;;;;;20679008;28;20094;-46
2024/02/04 12:16:59;;;;;;;2.53;1.40;;;17.70;59.20;;;;;;20677776;28;20053;-46
2024/02/04 12:27:03;;;;;;;3.38;1.83;;;17.50;60.50;;;;;;20677193;28;20037;-48
2024/02/04 12:37:04;;;;;;;3.55;1.20;;;17.10;60.90;;;;;;20675268;28;20096;-46
2024/02/04 12:47:06;;;;;;;1.60;0.90;;;16.80;60.80;;;;;;20673523;28;20474;-46
2024/02/04 12:57:11;;;;;;;1.48;0.80;;;16.50;59.00;;;;;;20674742;28;20040;-49
2024/02/04 13:07:16;;;;;;;1.85;1.17;;;15.90;58.70;;;;;;20675941;28;20072;-47
2024/02/04 13:17:18;;;;;;;4.35;2.20;;;15.10;62.40;;;;;;20674002;28;20954;-47
2024/02/04 13:27:20;;;;;;;4.32;2.22;;;14.60;62.80;;;;;;20671351;28;20307;-46
2024/02/04 13:37:22;;;;;;;0.57;0.25;;;14.70;63.80;;;;;;20669702;28;20999;-45
2024/02/04 13:47:23;;;;;;;0.50;0.30;;;14.90;59.90;;;;;;20671840;28;20650;-45
2024/02/04 13:57:26;;;;;;;0.38;0.20;;;14.80;57.70;;;;;;20671199;28;20072;-44
2024/02/04 14:07:27;;;;;;;1.10;0.20;;;14.60;58.10;;;;;;20669576;28;20073;-44
2024/02/04 14:17:29;;;;;;;3.75;0.25;;;14.60;57.60;;;;;;20667174;28;20134;-45
2024/02/04 14:27:31;;;;;;;4.82;3.03;;;14.60;57.90;;;;;;20668648;28;20187;-47
2024/02/04 14:37:33;;;;;;;2.22;1.33;;;14.30;62.50;;;;;;20671160;28;20447;-46
2024/02/04 14:47:38;;;;;;;0.70;0.30;;;13.20;63.20;;;;;;20666952;28;20064;-44
2024/02/04 14:57:40;;;;;;;0.70;0.20;;;14.00;57.80;;;;;;20647036;28;20061;-46
2024/02/04 15:07:42;;;;;;;0.30;0.20;;;14.40;57.50;;;;;;20664301;28;20134;-44
2024/02/04 15:17:44;;;;;;;0.65;0.17;;;14.50;57.10;;;;;;20676569;28;20178;-45
2024/02/04 15:27:48;;;;;;;0.13;0.10;;;14.10;56.60;;;;;;20682071;28;20242;-45
2024/02/04 15:37:50;;;;;;;0.85;0.22;;;14.20;56.90;;;;;;20682762;28;20376;-44
2024/02/04 15:47:57;;;;;;;0.10;0.10;;;14.20;56.60;;;;;;20681825;28;20130;-44
2024/02/04 15:58:03;;;;;;;0.63;0.40;;;14.20;55.70;;;;;;20682508;28;21174;-44
2024/02/04 16:08:05;;;;;;;0.40;0.30;;;14.10;55.70;;;;;;20678496;28;20065;-45
2024/02/04 16:18:08;;;;;;;0.80;0.17;;;13.90;55.50;;;;;;20678002;28;21207;-45
2024/02/04 16:28:13;;;;;;;0.20;0.10;;;13.50;56.40;;;;;;20677823;28;20072;-47
2024/02/04 16:38:15;;;;;;;0.95;0.15;;;13.60;54.80;;;;;;20678918;28;20210;-48
2024/02/04 16:48:17;;;;;;;0.28;0.20;;;13.60;54.50;;;;;;20678458;28;20153;-50
2024/02/04 16:58:19;;;;;;;0.82;0.10;;;13.90;54.30;;;;;;20679533;28;20821;-45
2024/02/04 17:08:25;;;;;;;0.10;0.10;;;14.10;54.20;;;;;;20680408;28;20126;-45
2024/02/04 17:18:39;;;;;;;0.10;0.03;;;14.10;53.60;;;;;;20675628;28;20084;-46
2024/02/04 17:28:43;;;;;;;0.73;0.20;;;13.80;52.40;;;;;;20673782;28;21269;-45
2024/02/04 17:38:45;;;;;;;0.20;0.10;;;14.00;53.00;;;;;;20675707;28;20511;-43
2024/02/04 17:48:47;;;;;;;0.28;0.17;;;14.00;53.40;;;;;;20673478;28;20095;-43
2024/02/04 17:58:49;;;;;;;0.40;0.10;;;13.90;53.90;;;;;;20658579;28;20098;-47
2024/02/04 18:08:51;;;;;;;0.10;0.10;;;13.70;53.00;;;;;;20677298;28;20041;-45
2024/02/04 18:18:54;;;;;;;3.65;1.58;;;13.80;53.30;;;;;;20675986;28;20130;-47
2024/02/04 18:28:58;;;;;;;1.17;0.40;;;13.20;55.30;;;;;;20672117;28;20045;-44
2024/02/04 18:39:01;;;;;;;0.70;0.20;;;11.80;57.40;;;;;;20673132;28;21826;-44
2024/02/04 18:49:03;;;;;;;0.73;0.22;;;10.80;60.70;;;;;;20676384;28;20065;-45
2024/02/04 18:59:04;;;;;;;0.30;0.10;;;10.10;62.30;;;;;;20690595;28;20037;-45
2024/02/04 19:09:11;;;;;;;0.25;0.10;;;10.40;57.80;;;;;;20689350;28;20037;-43
2024/02/04 19:19:14;;;;;;;0.65;0.10;;;10.60;60.20;;;;;;20668973;28;20072;-45
2024/02/04 19:29:16;;;;;;;1.20;0.40;;;10.00;61.00;;;;;;20685423;28;20073;-47
2024/02/04 19:39:18;;;;;;;0.20;0.10;;;9.80;63.40;;;;;;20683976;28;20037;-45
2024/02/04 19:49:25;;;;;;;0.80;0.20;;;9.30;63.40;;;;;;20686323;28;20656;-44
2024/02/04 19:59:27;;;;;;;0.10;0.10;;;9.10;63.30;;;;;;20682583;28;20846;-43
2024/02/04 20:09:35;;;;;;;0.00;0.00;;;10.20;57.90;;;;;;20683887;28;20150;-43
2024/02/04 20:19:37;;;;;;;0.65;0.00;;;12.00;54.20;;;;;;20679607;28;20166;-44
2024/02/04 20:29:39;;;;;;;0.10;0.00;;;12.40;56.30;;;;;;20680141;28;21156;-44
2024/02/04 20:39:41;;;;;;;0.10;0.00;;;11.00;58.20;;;;;;20680246;28;20114;-42
2024/02/04 20:49:43;;;;;;;0.45;0.00;;;9.90;61.20;;;;;;20678821;28;20091;-44
2024/02/04 20:59:46;;;;;;;0.08;0.00;;;9.20;63.70;;;;;;20679339;28;20165;-44
2024/02/04 21:09:49;;;;;;;0.10;0.00;;;9.70;57.50;;;;;;20678990;28;20126;-46
2024/02/04 21:19:51;;;;;;;1.30;0.60;;;11.90;54.40;;;;;;20675917;28;20080;-44
2024/02/04 21:29:53;;;;;;;1.10;0.00;;;10.80;60.00;;;;;;20676519;28;20108;-44
2024/02/04 21:39:55;;;;;;;0.10;0.00;;;9.80;62.00;;;;;;20675445;28;20154;-45
2024/02/04 21:50:00;;;;;;;0.13;0.00;;;9.80;63.30;;;;;;20675071;28;20122;-43
2024/02/04 22:00:02;;;;;;;0.20;0.00;;;8.90;66.10;;;;;;20582027;28;20278;-44
2024/02/04 22:10:08;;;;;;;0.28;0.00;;;8.10;68.60;;;;;;20565054;28;21231;-43
2024/02/04 22:20:11;;;;;;;0.10;0.05;;;7.60;70.50;;;;;;20601540;28;20144;-45
2024/02/04 22:30:13;;;;;;;0.00;0.00;;;7.20;71.00;;;;;;20689116;28;20099;-43
2024/02/04 22:40:15;;;;;;;0.40;0.10;;;7.20;72.30;;;;;;20690197;28;20098;-42
2024/02/04 22:50:17;;;;;;;0.13;0.10;;;7.00;72.00;;;;;;20689963;28;20068;-44
2024/02/04 23:00:28;;;;;;;0.10;0.00;;;6.90;73.00;;;;;;20688350;28;20273;-44
2024/02/04 23:10:30;;;;;;;0.10;0.00;;;6.70;74.70;;;;;;20688236;28;20118;-44
2024/02/04 23:20:32;;;;;;;0.08;0.00;;;6.70;72.80;;;;;;20684852;28;20080;-43
2024/02/04 23:30:34;;;;;;;0.30;0.08;;;7.00;73.60;;;;;;20686027;28;20091;-44
2024/02/04 23:40:36;;;;;;;0.22;0.13;;;6.70;73.90;;;;;;20684794;28;20521;-42
2024/02/04 23:50:38;;;;;;;0.25;0.10;;;6.60;74.90;;;;;;20683924;28;20177;-43
